createdAt,value
2023-05-26T00:00:58.465Z,33.60
2023-05-26T00:01:58.427Z,33.61
2023-05-26T00:02:58.478Z,33.61
2023-05-26T00:03:58.558Z,33.63
2023-05-26T00:04:58.431Z,33.60
2023-05-26T00:05:58.422Z,33.64
2023-05-26T00:06:58.392Z,33.60
2023-05-26T00:07:58.379Z,33.65
2023-05-26T00:08:58.417Z,33.69
2023-05-26T00:09:58.355Z,33.61
2023-05-26T00:10:58.365Z,33.67
2023-05-26T00:11:58.395Z,33.64
2023-05-26T00:12:58.335Z,33.61
2023-05-26T00:13:58.360Z,33.67
2023-05-26T00:14:58.329Z,33.71
2023-05-26T00:15:58.394Z,33.68
2023-05-26T00:16:58.308Z,33.67
2023-05-26T00:17:58.335Z,33.67
2023-05-26T00:18:58.320Z,33.69
2023-05-26T00:19:58.295Z,33.69
2023-05-26T00:20:58.302Z,33.69
2023-05-26T00:21:58.291Z,33.71
2023-05-26T00:22:58.297Z,33.71
2023-05-26T00:23:58.269Z,33.73
2023-05-26T00:24:58.251Z,33.72
2023-05-26T00:25:58.270Z,33.73
2023-05-26T00:26:58.263Z,33.71
2023-05-26T00:27:58.230Z,33.77
2023-05-26T00:28:58.251Z,33.69
2023-05-26T00:29:58.223Z,33.72
2023-05-26T00:30:58.257Z,33.73
2023-05-26T00:31:58.256Z,33.71
2023-05-26T00:32:58.302Z,33.76
2023-05-26T00:33:58.229Z,33.73
2023-05-26T00:34:58.192Z,33.72
2023-05-26T00:35:58.196Z,33.76
2023-05-26T00:36:58.183Z,33.69
2023-05-26T00:37:58.196Z,33.68
2023-05-26T00:38:58.172Z,33.64
2023-05-26T00:39:58.134Z,33.69
2023-05-26T00:40:58.167Z,33.74
2023-05-26T00:41:58.176Z,33.75
2023-05-26T00:42:58.151Z,33.73
2023-05-26T00:43:58.128Z,33.72
2023-05-26T00:44:58.177Z,33.70
2023-05-26T00:45:58.111Z,33.73
2023-05-26T00:46:58.153Z,33.72
2023-05-26T00:47:58.127Z,33.69
2023-05-26T00:48:58.103Z,33.72
2023-05-26T00:49:58.113Z,33.73
2023-05-26T00:50:58.084Z,33.72
2023-05-26T00:51:58.066Z,33.78
2023-05-26T00:52:58.061Z,33.73
2023-05-26T00:53:58.072Z,33.74
2023-05-26T00:54:58.070Z,33.77
2023-05-26T00:55:58.047Z,33.76
2023-05-26T00:56:58.075Z,33.76
2023-05-26T00:57:58.036Z,33.72
2023-05-26T00:58:58.028Z,33.83
2023-05-26T00:59:58.036Z,33.76
2023-05-26T01:00:58.061Z,33.80
2023-05-26T01:01:58.016Z,33.76
2023-05-26T01:02:58.053Z,33.74
2023-05-26T01:03:58.044Z,33.77
2023-05-26T01:04:57.989Z,33.77
2023-05-26T01:05:57.968Z,33.78
2023-05-26T01:06:58.004Z,33.74
2023-05-26T01:07:58.008Z,33.82
2023-05-26T01:08:57.996Z,33.80
2023-05-26T01:09:58.039Z,33.77
2023-05-26T01:10:58.057Z,33.80
2023-05-26T01:11:58.066Z,33.81
2023-05-26T01:12:58.148Z,33.74
2023-05-26T01:13:58.136Z,33.77
2023-05-26T01:14:58.109Z,33.82
2023-05-26T01:15:58.143Z,33.82
2023-05-26T01:16:58.235Z,33.81
2023-05-26T01:17:58.227Z,33.80
2023-05-26T01:18:58.188Z,33.78
2023-05-26T01:19:58.228Z,33.78
2023-05-26T01:20:58.227Z,33.81
2023-05-26T01:21:58.258Z,33.78
2023-05-26T01:22:58.300Z,33.83
2023-05-26T01:23:58.298Z,33.81
2023-05-26T01:24:58.353Z,33.76
2023-05-26T01:25:58.330Z,33.77
2023-05-26T01:26:58.383Z,33.82
2023-05-26T01:27:58.407Z,33.82
2023-05-26T01:28:58.414Z,33.78
2023-05-26T01:29:58.417Z,33.77
2023-05-26T01:30:58.479Z,33.82
2023-05-26T01:31:58.496Z,33.79
2023-05-26T01:32:58.562Z,33.79
2023-05-26T01:33:58.663Z,33.80
2023-05-26T01:34:58.564Z,33.85
2023-05-26T01:35:58.605Z,33.77
2023-05-26T01:36:58.685Z,33.81
2023-05-26T01:37:58.615Z,33.79
2023-05-26T01:38:58.669Z,33.83
2023-05-26T01:39:58.684Z,33.83
2023-05-26T01:40:58.699Z,33.78
2023-05-26T01:41:58.709Z,33.83
2023-05-26T01:42:58.752Z,33.85
2023-05-26T01:43:58.786Z,33.79
2023-05-26T01:44:58.802Z,33.83
2023-05-26T01:45:58.867Z,33.79
2023-05-26T01:46:58.855Z,33.81
2023-05-26T01:47:59.005Z,33.87
2023-05-26T01:48:58.879Z,33.86
2023-05-26T01:49:58.927Z,33.87
2023-05-26T01:50:58.964Z,33.83
2023-05-26T01:51:58.950Z,33.83
2023-05-26T01:52:58.978Z,33.85
2023-05-26T01:53:59.027Z,33.85
2023-05-26T01:54:59.015Z,33.87
2023-05-26T01:55:59.060Z,33.84
2023-05-26T01:56:59.081Z,33.85
2023-05-26T01:57:59.102Z,33.86
2023-05-26T01:58:59.136Z,33.86
2023-05-26T01:59:59.170Z,33.86
2023-05-26T02:00:59.188Z,33.83
2023-05-26T02:01:59.195Z,33.87
2023-05-26T02:02:59.354Z,33.86
2023-05-26T02:03:59.289Z,33.88
2023-05-26T02:04:59.237Z,33.83
2023-05-26T02:05:59.305Z,33.84
2023-05-26T02:06:59.294Z,33.82
2023-05-26T02:07:59.312Z,33.83
2023-05-26T02:08:59.355Z,33.84
2023-05-26T02:09:59.360Z,33.87
2023-05-26T02:10:59.425Z,33.86
2023-05-26T02:11:59.415Z,33.88
2023-05-26T02:12:59.439Z,33.88
2023-05-26T02:13:59.462Z,33.94
2023-05-26T02:14:59.464Z,33.90
2023-05-26T02:15:59.539Z,33.92
2023-05-26T02:16:59.577Z,33.87
2023-05-26T02:17:59.507Z,33.87
2023-05-26T02:18:59.536Z,33.91
2023-05-26T02:19:59.579Z,33.88
2023-05-26T02:20:59.595Z,33.88
2023-05-26T02:21:59.602Z,33.91
2023-05-26T02:22:59.625Z,33.91
2023-05-26T02:23:59.631Z,33.87
2023-05-26T02:24:59.654Z,33.92
2023-05-26T02:25:59.656Z,33.89
2023-05-26T02:26:59.662Z,33.89
2023-05-26T02:27:59.694Z,33.89
2023-05-26T02:28:59.735Z,33.91
2023-05-26T02:29:59.768Z,33.88
2023-05-26T02:30:59.785Z,33.91
2023-05-26T02:31:59.820Z,33.93
2023-05-26T02:32:59.861Z,33.88
2023-05-26T02:33:59.861Z,33.89
2023-05-26T02:34:59.893Z,33.91
2023-05-26T02:36:00.340Z,33.91
2023-05-26T02:36:59.917Z,33.85
2023-05-26T02:37:59.963Z,33.91
2023-05-26T02:39:00.013Z,33.92
2023-05-26T02:40:00.047Z,33.94
2023-05-26T02:41:00.031Z,33.91
2023-05-26T02:42:00.154Z,33.88
2023-05-26T02:43:00.110Z,33.91
2023-05-26T02:44:00.190Z,33.88
2023-05-26T02:45:00.185Z,33.90
2023-05-26T02:46:00.307Z,33.92
2023-05-26T02:47:00.216Z,33.91
2023-05-26T02:48:00.316Z,33.90
2023-05-26T02:49:00.249Z,33.90
2023-05-26T02:50:00.283Z,33.96
2023-05-26T02:51:00.275Z,33.89
2023-05-26T02:52:00.300Z,33.94
2023-05-26T02:53:00.334Z,33.90
2023-05-26T02:54:00.346Z,33.94
2023-05-26T02:55:00.400Z,33.94
2023-05-26T02:56:00.437Z,33.93
2023-05-26T02:57:00.425Z,33.93
2023-05-26T02:58:00.438Z,33.94
2023-05-26T02:59:00.476Z,33.93
2023-05-26T03:00:00.527Z,33.93
2023-05-26T03:01:00.562Z,33.93
2023-05-26T03:02:00.550Z,33.94
2023-05-26T03:03:00.666Z,33.95
2023-05-26T03:04:00.577Z,33.92
2023-05-26T03:05:02.408Z,33.94
2023-05-26T03:06:00.612Z,33.95
2023-05-26T03:07:00.580Z,33.93
2023-05-26T03:08:00.581Z,33.97
2023-05-26T03:09:00.563Z,33.97
2023-05-26T03:10:00.552Z,33.94
2023-05-26T03:11:09.755Z,33.94
2023-05-26T03:12:01.562Z,33.95
2023-05-26T03:13:00.556Z,33.95
2023-05-26T03:14:00.558Z,33.95
2023-05-26T03:15:00.526Z,33.93
2023-05-26T03:16:00.555Z,33.94
2023-05-26T03:17:00.556Z,33.97
2023-05-26T03:18:00.584Z,33.97
2023-05-26T03:19:00.506Z,33.94
2023-05-26T03:20:00.523Z,33.97
2023-05-26T03:21:00.508Z,33.93
2023-05-26T03:22:08.983Z,33.95
2023-05-26T03:23:01.482Z,33.98
2023-05-26T03:24:00.491Z,34.00
2023-05-26T03:25:00.476Z,33.95
2023-05-26T03:26:00.456Z,33.97
2023-05-26T03:27:00.485Z,33.99
2023-05-26T03:28:00.484Z,33.97
2023-05-26T03:29:00.457Z,33.98
2023-05-26T03:30:00.458Z,33.99
2023-05-26T03:31:00.470Z,33.97
2023-05-26T03:32:00.499Z,33.97
2023-05-26T03:33:00.454Z,33.99
2023-05-26T03:34:00.407Z,33.97
2023-05-26T03:35:00.425Z,33.99
2023-05-26T03:36:00.394Z,33.99
2023-05-26T03:37:00.382Z,33.99
2023-05-26T03:38:00.442Z,33.98
2023-05-26T03:39:00.409Z,33.98
2023-05-26T03:40:00.383Z,34.02
2023-05-26T03:41:00.423Z,34.02
2023-05-26T03:42:00.356Z,33.97
2023-05-26T03:43:00.404Z,34.02
2023-05-26T03:44:00.473Z,33.97
2023-05-26T03:45:00.480Z,34.00
2023-05-26T03:46:00.475Z,33.99
2023-05-26T03:47:00.564Z,34.01
2023-05-26T03:48:00.583Z,34.02
2023-05-26T03:49:00.551Z,33.99
2023-05-26T03:50:00.593Z,33.92
2023-05-26T03:51:00.620Z,34.00
2023-05-26T03:52:00.633Z,34.01
2023-05-26T03:53:00.681Z,34.03
2023-05-26T03:54:00.678Z,34.01
2023-05-26T03:55:00.720Z,34.00
2023-05-26T03:56:00.900Z,34.03
2023-05-26T03:57:00.790Z,34.00
2023-05-26T03:58:00.818Z,33.99
2023-05-26T03:59:00.833Z,34.00
2023-05-26T04:00:00.901Z,34.01
2023-05-26T04:01:00.907Z,33.99
2023-05-26T04:02:01.010Z,33.97
2023-05-26T04:03:01.004Z,34.00
2023-05-26T04:04:01.011Z,34.00
2023-05-26T04:05:01.049Z,34.04
2023-05-26T04:06:59.064Z,34.09
2023-05-26T04:07:59.081Z,34.05
2023-05-26T04:08:59.097Z,34.03
2023-05-26T04:09:59.052Z,34.04
2023-05-26T04:10:59.081Z,34.03
2023-05-26T04:11:59.062Z,34.04
2023-05-26T04:12:59.026Z,33.99
2023-05-26T04:13:59.068Z,34.05
2023-05-26T04:14:59.035Z,34.04
2023-05-26T04:15:59.054Z,34.03
2023-05-26T04:16:59.364Z,34.03
2023-05-26T04:17:59.115Z,34.03
2023-05-26T04:18:59.016Z,34.09
2023-05-26T04:19:59.028Z,34.03
2023-05-26T04:20:59.012Z,34.04
2023-05-26T04:21:58.987Z,34.03
2023-05-26T04:22:58.996Z,34.04
2023-05-26T04:23:58.996Z,34.04
2023-05-26T04:24:58.958Z,34.05
2023-05-26T04:25:58.962Z,34.09
2023-05-26T04:26:58.995Z,34.06
2023-05-26T04:27:58.935Z,34.05
2023-05-26T04:28:58.973Z,34.09
2023-05-26T04:29:58.942Z,34.09
2023-05-26T04:30:58.942Z,34.02
2023-05-26T04:31:59.019Z,34.00
2023-05-26T04:32:59.000Z,34.09
2023-05-26T04:33:58.915Z,34.05
2023-05-26T04:34:58.914Z,34.09
2023-05-26T04:35:58.894Z,34.06
2023-05-26T04:36:58.884Z,34.09
2023-05-26T04:37:58.914Z,34.09
2023-05-26T04:38:58.879Z,34.10
2023-05-26T04:39:59.434Z,34.06
2023-05-26T04:40:58.896Z,34.08
2023-05-26T04:41:58.864Z,34.09
2023-05-26T04:42:58.862Z,34.06
2023-05-26T04:43:58.841Z,34.08
2023-05-26T04:44:58.836Z,34.09
2023-05-26T04:45:58.895Z,34.10
2023-05-26T04:46:58.838Z,34.08
2023-05-26T04:47:58.884Z,34.05
2023-05-26T04:48:58.862Z,34.09
2023-05-26T04:49:58.801Z,34.09
2023-05-26T04:50:58.779Z,34.07
2023-05-26T04:51:58.798Z,34.11
2023-05-26T04:52:58.762Z,34.05
2023-05-26T04:53:58.756Z,34.11
2023-05-26T04:54:58.750Z,34.11
2023-05-26T04:55:58.771Z,34.10
2023-05-26T04:56:58.739Z,34.11
2023-05-26T04:57:58.733Z,34.09
2023-05-26T04:58:58.755Z,34.08
2023-05-26T04:59:58.740Z,34.12
2023-05-26T05:00:58.725Z,34.09
2023-05-26T05:01:58.824Z,34.11
2023-05-26T05:02:58.766Z,34.13
2023-05-26T05:03:58.735Z,34.10
2023-05-26T05:04:58.717Z,34.08
2023-05-26T05:05:58.693Z,34.15
2023-05-26T05:06:58.711Z,34.12
2023-05-26T05:07:58.673Z,34.10
2023-05-26T05:08:58.673Z,34.10
2023-05-26T05:09:58.659Z,34.09
2023-05-26T05:10:58.658Z,34.11
2023-05-26T05:11:58.643Z,34.10
2023-05-26T05:12:58.620Z,34.13
2023-05-26T05:13:58.630Z,34.10
2023-05-26T05:14:58.635Z,34.09
2023-05-26T05:15:58.627Z,34.10
2023-05-26T05:16:58.573Z,34.09
2023-05-26T05:17:58.630Z,34.10
2023-05-26T05:18:58.600Z,34.14
2023-05-26T05:20:13.528Z,34.11
2023-05-26T05:20:59.605Z,34.10
2023-05-26T05:21:58.545Z,34.13
2023-05-26T05:22:58.538Z,34.10
2023-05-26T05:23:58.565Z,34.09
2023-05-26T05:24:58.585Z,34.14
2023-05-26T05:25:58.531Z,34.13
2023-05-26T05:26:58.530Z,34.08
2023-05-26T05:27:58.554Z,34.08
2023-05-26T05:28:58.515Z,34.12
2023-05-26T05:29:58.524Z,34.13
2023-05-26T05:30:58.515Z,34.18
2023-05-26T05:31:58.527Z,34.14
2023-05-26T05:32:58.675Z,34.13
2023-05-26T05:33:58.490Z,34.17
2023-05-26T05:34:58.547Z,34.18
2023-05-26T05:35:58.496Z,34.19
2023-05-26T05:36:58.492Z,34.13
2023-05-26T05:37:58.492Z,34.17
2023-05-26T05:38:58.506Z,34.14
2023-05-26T05:39:58.532Z,34.12
2023-05-26T05:40:58.517Z,34.19
2023-05-26T05:41:58.558Z,34.17
2023-05-26T05:42:58.606Z,34.15
2023-05-26T05:43:58.594Z,34.13
2023-05-26T05:44:59.559Z,34.17
2023-05-26T05:45:58.704Z,34.13
2023-05-26T05:46:58.768Z,34.14
2023-05-26T05:47:58.842Z,34.17
2023-05-26T05:48:58.771Z,34.13
2023-05-26T05:49:58.794Z,34.12
2023-05-26T05:50:58.882Z,34.14
2023-05-26T05:51:58.884Z,34.14
2023-05-26T05:52:58.957Z,34.17
2023-05-26T05:53:58.951Z,34.15
2023-05-26T05:54:58.988Z,34.14
2023-05-26T05:55:59.015Z,34.14
2023-05-26T05:56:59.085Z,34.16
2023-05-26T05:57:59.052Z,34.15
2023-05-26T05:58:59.147Z,34.12
2023-05-26T05:59:59.207Z,34.15
2023-05-26T06:00:59.198Z,34.14
2023-05-26T06:01:59.271Z,34.17
2023-05-26T06:02:59.407Z,34.18
2023-05-26T06:03:59.396Z,34.18
2023-05-26T06:05:01.806Z,34.16
2023-05-26T06:05:59.286Z,34.17
2023-05-26T06:06:59.291Z,34.14
2023-05-26T06:07:59.266Z,34.16
2023-05-26T06:08:59.265Z,34.18
2023-05-26T06:09:59.292Z,34.18
2023-05-26T06:10:59.250Z,34.18
2023-05-26T06:11:59.268Z,34.21
2023-05-26T06:12:59.257Z,34.13
2023-05-26T06:13:59.256Z,34.13
2023-05-26T06:14:59.245Z,34.17
2023-05-26T06:15:59.224Z,34.16
2023-05-26T06:16:59.261Z,34.11
2023-05-26T06:17:59.258Z,34.17
2023-05-26T06:18:59.172Z,34.17
2023-05-26T06:19:59.210Z,34.14
2023-05-26T06:20:59.234Z,34.14
2023-05-26T06:21:59.196Z,34.16
2023-05-26T06:22:59.147Z,34.20
2023-05-26T06:23:59.165Z,34.19
2023-05-26T06:24:59.130Z,34.19
2023-05-26T06:25:59.154Z,34.17
2023-05-26T06:26:59.177Z,34.15
2023-05-26T06:27:59.137Z,34.17
2023-05-26T06:28:59.131Z,34.16
2023-05-26T06:29:59.142Z,34.12
2023-05-26T06:30:59.152Z,34.20
2023-05-26T06:31:59.112Z,34.15
2023-05-26T06:32:59.127Z,34.16
2023-05-26T06:33:59.095Z,34.17
2023-05-26T06:34:59.078Z,34.15
2023-05-26T06:35:59.140Z,34.11
2023-05-26T06:36:59.087Z,34.11
2023-05-26T06:37:59.148Z,34.17
2023-05-26T06:38:59.393Z,34.13
2023-05-26T06:39:59.034Z,34.19
2023-05-26T06:40:59.047Z,34.13
2023-05-26T06:41:59.055Z,34.11
2023-05-26T06:42:59.124Z,34.16
2023-05-26T06:43:59.038Z,34.13
2023-05-26T06:44:58.996Z,34.14
2023-05-26T06:45:59.000Z,34.16
2023-05-26T06:46:59.053Z,34.12
2023-05-26T06:47:59.020Z,34.17
2023-05-26T06:48:59.039Z,34.12
2023-05-26T06:49:59.083Z,34.20
2023-05-26T06:50:59.097Z,34.47
2023-05-26T06:51:59.124Z,34.38
2023-05-26T06:52:59.197Z,34.38
2023-05-26T06:53:59.207Z,34.39
2023-05-26T06:54:59.209Z,34.57
2023-05-26T06:55:59.218Z,34.54
2023-05-26T06:56:59.262Z,34.47
2023-05-26T06:57:59.297Z,34.50
2023-05-26T06:58:59.341Z,34.55
2023-05-26T06:59:59.323Z,34.67
2023-05-26T07:00:59.329Z,34.64
2023-05-26T07:01:59.365Z,34.64
2023-05-26T07:02:59.435Z,34.68
2023-05-26T07:03:59.394Z,34.73
2023-05-26T07:04:59.410Z,34.78
2023-05-26T07:05:59.444Z,34.74
2023-05-26T07:06:59.600Z,34.81
2023-05-26T07:07:59.499Z,34.83
2023-05-26T07:08:59.531Z,34.74
2023-05-26T07:09:59.562Z,34.76
2023-05-26T07:10:59.608Z,34.72
2023-05-26T07:11:59.622Z,34.71
2023-05-26T07:12:59.622Z,34.66
2023-05-26T07:13:59.653Z,34.67
2023-05-26T07:14:59.655Z,34.65
2023-05-26T07:15:59.692Z,34.68
2023-05-26T07:16:59.708Z,34.61
2023-05-26T07:17:59.756Z,34.60
2023-05-26T07:18:59.740Z,34.63
2023-05-26T07:19:59.789Z,34.60
2023-05-26T07:20:59.895Z,34.56
2023-05-26T07:21:59.803Z,34.53
2023-05-26T07:22:59.788Z,34.54
2023-05-26T07:23:59.847Z,34.51
2023-05-26T07:24:59.888Z,34.53
2023-05-26T07:25:59.862Z,34.55
2023-05-26T07:27:00.025Z,34.50
2023-05-26T07:27:59.906Z,34.48
2023-05-26T07:28:59.938Z,34.43
2023-05-26T07:29:59.949Z,34.50
2023-05-26T07:30:59.963Z,34.48
2023-05-26T07:32:00.019Z,34.50
2023-05-26T07:33:00.045Z,34.48
2023-05-26T07:34:00.039Z,34.51
2023-05-26T07:35:00.030Z,34.50
2023-05-26T07:36:00.058Z,34.47
2023-05-26T07:37:00.090Z,34.46
2023-05-26T07:38:00.045Z,34.45
2023-05-26T07:39:00.121Z,34.47
2023-05-26T07:40:00.099Z,34.50
2023-05-26T07:41:00.117Z,34.45
2023-05-26T07:42:00.174Z,34.41
2023-05-26T07:43:00.153Z,34.49
2023-05-26T07:44:00.175Z,34.74
2023-05-26T07:45:00.182Z,35.01
2023-05-26T07:46:00.263Z,34.91
2023-05-26T07:47:00.230Z,35.24
2023-05-26T07:48:00.273Z,35.07
2023-05-26T07:49:00.236Z,35.16
2023-05-26T07:50:00.264Z,35.22
2023-05-26T07:51:00.278Z,35.18
2023-05-26T07:52:00.324Z,35.37
2023-05-26T07:53:00.313Z,35.39
2023-05-26T07:54:00.371Z,35.12
2023-05-26T07:55:00.362Z,35.13
2023-05-26T07:56:00.374Z,35.23
2023-05-26T07:57:00.410Z,35.10
2023-05-26T07:58:00.383Z,35.14
2023-05-26T07:59:00.444Z,35.12
2023-05-26T08:00:00.402Z,35.13
2023-05-26T08:01:00.436Z,35.12
2023-05-26T08:02:00.499Z,35.10
2023-05-26T08:03:00.720Z,35.15
2023-05-26T08:04:00.606Z,35.09
2023-05-26T08:05:00.594Z,35.06
2023-05-26T08:06:07.724Z,35.13
2023-05-26T08:07:01.521Z,35.07
2023-05-26T08:08:00.519Z,35.08
2023-05-26T08:09:00.496Z,35.04
2023-05-26T08:10:00.498Z,35.05
2023-05-26T08:11:00.479Z,35.02
2023-05-26T08:12:00.486Z,35.00
2023-05-26T08:13:00.519Z,35.03
2023-05-26T08:14:00.465Z,34.99
2023-05-26T08:15:00.422Z,34.99
2023-05-26T08:16:00.503Z,35.00
2023-05-26T08:17:00.427Z,35.00
2023-05-26T08:18:00.473Z,34.97
2023-05-26T08:19:00.442Z,34.97
2023-05-26T08:20:00.568Z,35.00
2023-05-26T08:21:00.448Z,34.96
2023-05-26T08:22:00.840Z,34.98
2023-05-26T08:23:00.394Z,34.94
2023-05-26T08:24:00.378Z,34.94
2023-05-26T08:25:00.377Z,34.99
2023-05-26T08:26:00.382Z,34.94
2023-05-26T08:27:00.378Z,34.90
2023-05-26T08:28:00.352Z,34.99
2023-05-26T08:29:00.352Z,34.90
2023-05-26T08:30:00.393Z,34.89
2023-05-26T08:31:00.416Z,34.92
2023-05-26T08:32:01.661Z,34.92
2023-05-26T08:33:00.436Z,34.93
2023-05-26T08:34:00.343Z,34.95
2023-05-26T08:35:00.330Z,34.90
2023-05-26T08:36:00.357Z,34.90
2023-05-26T08:37:00.476Z,35.21
2023-05-26T08:38:00.311Z,35.24
2023-05-26T08:39:00.311Z,35.28
2023-05-26T08:40:00.329Z,35.25
2023-05-26T08:41:00.318Z,35.25
2023-05-26T08:42:00.287Z,35.23
2023-05-26T08:43:00.319Z,35.17
2023-05-26T08:44:07.022Z,35.35
2023-05-26T08:45:01.309Z,35.35
2023-05-26T08:46:00.328Z,35.42
2023-05-26T08:47:00.410Z,35.58
2023-05-26T08:48:00.313Z,35.60
2023-05-26T08:49:00.294Z,35.68
2023-05-26T08:50:00.229Z,35.84
2023-05-26T08:51:00.261Z,35.77
2023-05-26T08:52:00.329Z,36.12
2023-05-26T08:53:06.037Z,36.01
2023-05-26T08:54:01.202Z,36.25
2023-05-26T08:55:00.220Z,36.41
2023-05-26T08:56:00.232Z,36.26
2023-05-26T08:57:00.217Z,36.45
2023-05-26T08:58:00.276Z,36.61
2023-05-26T08:59:00.178Z,36.69
2023-05-26T09:00:00.227Z,36.84
2023-05-26T09:01:00.253Z,37.05
2023-05-26T09:02:00.261Z,37.05
2023-05-26T09:03:00.348Z,37.24
2023-05-26T09:04:00.233Z,37.51
2023-05-26T09:05:00.177Z,37.23
2023-05-26T09:06:00.167Z,37.47
2023-05-26T09:07:22.779Z,37.68
2023-05-26T09:08:01.142Z,37.34
2023-05-26T09:09:00.148Z,37.48
2023-05-26T09:10:00.150Z,37.71
2023-05-26T09:11:00.135Z,37.62
2023-05-26T09:12:00.151Z,37.74
2023-05-26T09:13:00.127Z,37.37
2023-05-26T09:14:00.133Z,37.67
2023-05-26T09:15:00.177Z,37.36
2023-05-26T09:16:09.963Z,37.56
2023-05-26T09:17:01.137Z,37.30
2023-05-26T09:18:00.130Z,37.52
2023-05-26T09:19:00.065Z,37.73
2023-05-26T09:20:00.168Z,37.61
2023-05-26T09:21:00.052Z,37.69
2023-05-26T09:22:00.049Z,37.66
2023-05-26T09:23:00.073Z,37.67
2023-05-26T09:24:00.037Z,37.52
2023-05-26T09:25:00.037Z,37.48
2023-05-26T09:25:59.975Z,37.66
2023-05-26T09:27:00.173Z,37.63
2023-05-26T09:27:59.985Z,37.75
2023-05-26T09:29:00.001Z,37.42
2023-05-26T09:29:59.997Z,37.39
2023-05-26T09:31:00.077Z,37.42
2023-05-26T09:31:59.971Z,37.68
2023-05-26T09:32:59.983Z,37.64
2023-05-26T09:33:59.981Z,37.41
2023-05-26T09:35:00.209Z,37.35
2023-05-26T09:36:00.303Z,37.48
2023-05-26T09:37:00.158Z,37.68
2023-05-26T09:38:00.093Z,37.50
2023-05-26T09:39:00.176Z,37.27
2023-05-26T09:40:00.200Z,37.36
2023-05-26T09:41:00.230Z,37.22
2023-05-26T09:42:00.323Z,37.35
2023-05-26T09:43:00.299Z,37.22
2023-05-26T09:44:00.356Z,37.21
2023-05-26T09:45:00.298Z,37.13
2023-05-26T09:46:00.394Z,37.13
2023-05-26T09:47:00.379Z,37.02
2023-05-26T09:48:00.393Z,36.88
2023-05-26T09:49:00.444Z,37.15
2023-05-26T09:50:00.428Z,37.17
2023-05-26T09:51:00.450Z,37.46
2023-05-26T09:52:12.813Z,37.25
2023-05-26T09:53:01.466Z,37.41
2023-05-26T09:54:00.482Z,37.33
2023-05-26T09:55:00.432Z,37.02
2023-05-26T09:56:00.449Z,37.33
2023-05-26T09:57:00.467Z,37.55
2023-05-26T09:58:00.414Z,37.41
2023-05-26T09:59:00.433Z,37.45
2023-05-26T10:00:00.472Z,37.52
2023-05-26T10:01:00.453Z,37.47
2023-05-26T10:02:00.441Z,37.36
2023-05-26T10:03:00.482Z,37.26
2023-05-26T10:04:00.436Z,37.26
2023-05-26T10:05:00.405Z,37.28
2023-05-26T10:06:00.640Z,36.93
2023-05-26T10:07:00.385Z,37.08
2023-05-26T10:08:00.341Z,36.87
2023-05-26T10:09:00.337Z,36.87
2023-05-26T10:10:00.366Z,36.74
2023-05-26T10:11:00.394Z,36.63
2023-05-26T10:12:00.431Z,36.63
2023-05-26T10:13:00.310Z,36.67
2023-05-26T10:14:00.349Z,36.54
2023-05-26T10:15:00.367Z,36.75
2023-05-26T10:16:00.482Z,37.13
2023-05-26T10:17:00.545Z,36.76
2023-05-26T10:18:00.509Z,36.86
2023-05-26T10:19:00.426Z,36.94
2023-05-26T10:20:00.489Z,36.57
2023-05-26T10:21:00.600Z,36.82
2023-05-26T10:22:00.501Z,36.63
2023-05-26T10:23:00.516Z,36.83
2023-05-26T10:24:00.564Z,36.78
2023-05-26T10:25:00.558Z,36.57
2023-05-26T10:26:00.590Z,36.48
2023-05-26T10:27:00.620Z,36.54
2023-05-26T10:28:00.656Z,36.52
2023-05-26T10:29:00.657Z,36.66
2023-05-26T10:30:00.696Z,36.71
2023-05-26T10:31:00.725Z,36.71
2023-05-26T10:32:00.735Z,36.55
2023-05-26T10:33:00.783Z,36.86
2023-05-26T10:34:00.755Z,36.65
2023-05-26T10:35:00.798Z,36.43
2023-05-26T10:36:00.803Z,36.51
2023-05-26T10:37:00.809Z,36.40
2023-05-26T10:38:00.840Z,36.68
2023-05-26T10:39:00.876Z,36.55
2023-05-26T10:40:00.862Z,36.40
2023-05-26T10:41:00.920Z,36.46
2023-05-26T10:42:00.901Z,36.46
2023-05-26T10:43:00.937Z,36.62
2023-05-26T10:44:00.969Z,36.76
2023-05-26T10:45:00.967Z,36.74
2023-05-26T10:46:01.277Z,36.66
2023-05-26T10:47:00.974Z,36.46
2023-05-26T10:48:01.013Z,36.76
2023-05-26T10:49:01.000Z,36.67
2023-05-26T10:50:01.045Z,36.77
2023-05-26T10:51:01.006Z,36.61
2023-05-26T10:52:01.049Z,36.45
2023-05-26T10:53:01.038Z,36.28
2023-05-26T10:54:01.072Z,36.14
2023-05-26T10:55:01.075Z,36.06
2023-05-26T10:56:01.072Z,36.06
2023-05-26T10:57:01.114Z,35.90
2023-05-26T10:58:01.103Z,35.98
2023-05-26T10:59:01.124Z,35.55
2023-05-26T11:00:01.099Z,35.61
2023-05-26T11:01:01.258Z,35.48
2023-05-26T11:02:01.224Z,35.18
2023-05-26T11:03:01.186Z,34.87
2023-05-26T11:04:01.253Z,35.16
2023-05-26T11:05:01.207Z,35.18
2023-05-26T11:06:01.246Z,35.28
2023-05-26T11:07:01.226Z,35.35
2023-05-26T11:08:01.346Z,35.38
2023-05-26T11:09:01.267Z,35.29
2023-05-26T11:10:02.105Z,35.33
2023-05-26T11:11:01.331Z,35.33
2023-05-26T11:12:01.280Z,35.22
2023-05-26T11:13:01.306Z,35.24
2023-05-26T11:14:01.294Z,35.22
2023-05-26T11:15:01.305Z,35.05
2023-05-26T11:17:02.472Z,35.16
2023-05-26T11:18:02.425Z,35.12
2023-05-26T11:19:02.350Z,34.96
2023-05-26T11:20:02.396Z,35.02
2023-05-26T11:21:02.372Z,34.90
2023-05-26T11:22:02.376Z,34.82
2023-05-26T11:23:02.342Z,34.70
2023-05-26T11:24:02.355Z,34.87
2023-05-26T11:25:02.312Z,34.93
2023-05-26T11:26:02.355Z,35.03
2023-05-26T11:27:02.322Z,35.02
2023-05-26T11:28:02.297Z,35.06
2023-05-26T11:29:02.304Z,35.08
2023-05-26T11:30:02.294Z,35.08
2023-05-26T11:31:02.313Z,34.39
2023-05-26T11:32:02.327Z,34.44
2023-05-26T11:33:02.324Z,34.14
2023-05-26T11:34:02.280Z,34.33
2023-05-26T11:35:02.251Z,34.47
2023-05-26T11:36:02.259Z,34.51
2023-05-26T11:37:02.250Z,34.51
2023-05-26T11:38:02.261Z,34.61
2023-05-26T11:39:02.299Z,34.71
2023-05-26T11:40:02.220Z,34.71
2023-05-26T11:41:02.214Z,34.70
2023-05-26T11:42:02.222Z,34.77
2023-05-26T11:43:02.191Z,34.77
2023-05-26T11:44:02.189Z,34.81
2023-05-26T11:45:02.190Z,34.79
2023-05-26T11:46:02.157Z,34.77
2023-05-26T11:47:02.222Z,34.79
2023-05-26T11:48:02.234Z,34.83
2023-05-26T11:49:02.172Z,34.81
2023-05-26T11:50:04.545Z,34.78
2023-05-26T11:51:02.177Z,34.75
2023-05-26T11:52:02.137Z,34.80
2023-05-26T11:53:02.148Z,34.78
2023-05-26T11:54:02.105Z,34.78
2023-05-26T11:55:02.126Z,34.78
2023-05-26T11:56:02.089Z,34.83
2023-05-26T11:57:02.135Z,34.83
2023-05-26T11:58:02.121Z,34.82
2023-05-26T11:59:02.192Z,34.86
2023-05-26T12:00:02.620Z,34.76
2023-05-26T12:01:02.092Z,34.76
2023-05-26T12:02:02.111Z,34.81
2023-05-26T12:03:02.113Z,34.77
2023-05-26T12:04:02.188Z,34.81
2023-05-26T12:05:02.052Z,34.84
2023-05-26T12:06:02.050Z,34.76
2023-05-26T12:07:02.044Z,34.80
2023-05-26T12:08:02.050Z,34.75
2023-05-26T12:09:02.053Z,34.77
2023-05-26T12:10:02.028Z,34.80
2023-05-26T12:11:02.148Z,34.78
2023-05-26T12:12:02.049Z,34.79
2023-05-26T12:13:02.015Z,34.74
2023-05-26T12:14:02.036Z,34.74
2023-05-26T12:15:02.001Z,34.76
2023-05-26T12:16:01.998Z,34.75
2023-05-26T12:17:02.052Z,34.78
2023-05-26T12:18:02.162Z,34.71
2023-05-26T12:19:01.978Z,34.74
2023-05-26T12:20:02.127Z,34.74
2023-05-26T12:21:01.984Z,34.71
2023-05-26T12:22:02.013Z,34.74
2023-05-26T12:23:01.941Z,34.70
2023-05-26T12:24:01.958Z,34.66
2023-05-26T12:25:01.935Z,34.72
2023-05-26T12:26:01.953Z,34.69
2023-05-26T12:27:01.929Z,34.70
2023-05-26T12:28:01.943Z,34.72
2023-05-26T12:29:01.924Z,34.73
2023-05-26T12:30:01.954Z,34.76
2023-05-26T12:31:02.080Z,34.70
2023-05-26T12:32:01.944Z,34.73
2023-05-26T12:33:02.018Z,34.76
2023-05-26T12:34:01.869Z,34.74
2023-05-26T12:35:01.904Z,34.76
2023-05-26T12:36:02.036Z,34.72
2023-05-26T12:37:01.894Z,34.76
2023-05-26T12:38:01.900Z,34.76
2023-05-26T12:39:01.863Z,34.86
2023-05-26T12:40:01.841Z,34.84
2023-05-26T12:41:02.088Z,34.81
2023-05-26T12:42:01.863Z,34.89
2023-05-26T12:43:01.852Z,34.78
2023-05-26T12:44:01.814Z,34.76
2023-05-26T12:45:01.810Z,34.78
2023-05-26T12:46:01.779Z,34.72
2023-05-26T12:47:01.831Z,34.74
2023-05-26T12:48:01.846Z,34.74
2023-05-26T12:49:01.940Z,34.69
2023-05-26T12:50:01.789Z,34.63
2023-05-26T12:51:01.822Z,34.65
2023-05-26T12:52:01.772Z,34.65
2023-05-26T12:53:01.760Z,34.68
2023-05-26T12:54:01.754Z,34.66
2023-05-26T12:55:01.831Z,34.76